createdAt,value
2023-05-05T00:02:12.629Z,32.36
2023-05-05T00:04:39.264Z,31.96
2023-05-05T00:07:05.895Z,32.12
2023-05-05T00:09:32.334Z,32.19
2023-05-05T00:11:58.773Z,32.59
2023-05-05T00:14:25.323Z,32.65
2023-05-05T00:16:52.060Z,32.69
2023-05-05T00:19:18.671Z,32.74
2023-05-05T00:21:48.030Z,32.95
2023-05-05T00:24:16.811Z,32.48
2023-05-05T00:26:43.246Z,32.50
2023-05-05T00:29:09.634Z,33.05
2023-05-05T00:31:36.173Z,33.17
2023-05-05T00:34:02.566Z,32.90
2023-05-05T00:36:29.263Z,32.99
2023-05-05T00:38:55.692Z,32.84
2023-05-05T00:41:23.334Z,33.09
2023-05-05T00:43:51.568Z,33.27
2023-05-05T00:46:20.131Z,33.00
2023-05-05T00:48:47.611Z,33.45
2023-05-05T00:51:14.103Z,33.39
2023-05-05T00:53:43.270Z,33.43
2023-05-05T00:56:12.229Z,33.31
2023-05-05T00:58:38.961Z,33.05
2023-05-05T01:01:05.378Z,33.26
2023-05-05T01:03:32.179Z,33.41
2023-05-05T01:05:58.994Z,33.68
2023-05-05T01:08:26.485Z,33.51
2023-05-05T01:10:53.356Z,33.64
2023-05-05T01:13:19.830Z,33.70
2023-05-05T01:15:46.417Z,33.61
2023-05-05T01:18:12.901Z,33.92
2023-05-05T01:20:42.869Z,33.94
2023-05-05T01:23:09.488Z,34.41
2023-05-05T01:25:37.067Z,34.54
2023-05-05T01:28:03.514Z,34.43
2023-05-05T01:30:29.964Z,34.19
2023-05-05T01:32:56.489Z,34.63
2023-05-05T01:35:22.930Z,34.39
2023-05-05T01:37:51.513Z,34.64
2023-05-05T01:40:18.147Z,34.62
2023-05-05T01:42:44.863Z,34.90
2023-05-05T01:45:11.296Z,34.57
2023-05-05T01:47:37.797Z,34.66
2023-05-05T01:50:04.206Z,34.62
2023-05-05T01:52:30.751Z,34.52
2023-05-05T01:54:57.277Z,34.28
2023-05-05T01:57:24.137Z,34.46
2023-05-05T01:59:50.529Z,34.61
2023-05-05T02:02:20.102Z,34.73
2023-05-05T02:04:46.726Z,34.48
2023-05-05T02:07:13.390Z,34.57
2023-05-05T02:09:40.022Z,34.67
2023-05-05T02:12:06.716Z,34.55
2023-05-05T02:14:33.257Z,34.81
2023-05-05T02:16:59.920Z,34.97
2023-05-05T02:19:26.522Z,34.75
2023-05-05T02:21:53.026Z,34.79
2023-05-05T02:24:20.041Z,34.79
2023-05-05T02:26:46.626Z,35.01
2023-05-05T02:29:13.065Z,34.93
2023-05-05T02:31:39.598Z,34.98
2023-05-05T02:34:06.045Z,35.15
2023-05-05T02:36:32.843Z,35.22
2023-05-05T02:38:59.285Z,35.46
2023-05-05T02:41:25.806Z,35.33
2023-05-05T02:43:52.270Z,35.36
2023-05-05T02:46:18.759Z,35.42
2023-05-05T02:48:46.525Z,35.67
2023-05-05T02:51:12.996Z,35.68
2023-05-05T02:53:39.462Z,35.84
2023-05-05T02:56:05.898Z,35.83
2023-05-05T02:58:32.318Z,35.87
2023-05-05T03:00:59.371Z,35.68
2023-05-05T03:03:26.103Z,35.97
2023-05-05T03:05:52.616Z,35.89
2023-05-05T03:08:19.083Z,35.81
2023-05-05T03:10:45.565Z,36.02
2023-05-05T03:13:12.313Z,35.89
2023-05-05T03:15:38.812Z,35.95
2023-05-05T03:18:05.764Z,35.80
2023-05-05T03:20:32.344Z,35.77
2023-05-05T03:22:58.826Z,35.78
2023-05-05T03:25:25.239Z,36.06
2023-05-05T03:27:51.742Z,36.00
2023-05-05T03:30:18.168Z,36.09
2023-05-05T03:32:44.787Z,36.12
2023-05-05T03:35:14.621Z,36.14
2023-05-05T03:37:41.091Z,36.17
2023-05-05T03:40:07.948Z,36.28
2023-05-05T03:42:34.742Z,36.23
2023-05-05T03:45:01.209Z,36.28
2023-05-05T03:47:27.775Z,36.52
2023-05-05T03:49:54.368Z,36.83
2023-05-05T03:52:20.928Z,37.03
2023-05-05T03:54:47.771Z,36.61
2023-05-05T03:57:14.521Z,36.65
2023-05-05T03:59:41.494Z,36.54
2023-05-05T04:02:08.100Z,36.89
2023-05-05T04:04:34.723Z,37.02
2023-05-05T04:07:03.553Z,36.97
2023-05-05T04:09:30.312Z,37.00
2023-05-05T04:11:56.769Z,36.81
2023-05-05T04:14:23.519Z,37.51
2023-05-05T04:16:50.007Z,37.44
2023-05-05T04:19:16.790Z,37.21
2023-05-05T04:21:45.594Z,37.24
2023-05-05T04:24:12.097Z,37.57
2023-05-05T04:26:38.925Z,37.32
2023-05-05T04:29:05.425Z,37.32
2023-05-05T04:31:31.988Z,37.07
2023-05-05T04:33:59.091Z,37.18
2023-05-05T04:36:25.637Z,37.34
2023-05-05T04:38:52.171Z,37.48
2023-05-05T04:41:19.338Z,37.95
2023-05-05T04:43:46.250Z,37.54
2023-05-05T04:46:15.181Z,37.55
2023-05-05T04:48:41.698Z,37.49
2023-05-05T04:51:09.442Z,37.71
2023-05-05T04:53:36.121Z,37.42
2023-05-05T04:56:02.677Z,37.22
2023-05-05T04:58:29.103Z,37.37
2023-05-05T05:00:58.736Z,37.47
2023-05-05T05:03:25.607Z,37.96
2023-05-05T05:05:52.502Z,37.90
2023-05-05T05:08:19.071Z,38.27
2023-05-05T05:10:45.552Z,38.15
2023-05-05T05:13:12.862Z,37.83
2023-05-05T05:15:39.590Z,37.45
2023-05-05T05:18:06.185Z,37.32
2023-05-05T05:20:33.313Z,37.34
2023-05-05T05:23:00.831Z,37.71
2023-05-05T05:25:27.646Z,37.50
2023-05-05T05:28:06.180Z,37.35
2023-05-05T05:30:36.490Z,37.34
2023-05-05T05:33:03.185Z,36.79
2023-05-05T05:35:31.914Z,36.01
2023-05-05T05:38:01.081Z,36.97
2023-05-05T05:40:27.658Z,36.84
2023-05-05T05:42:56.555Z,37.06
2023-05-05T05:45:23.064Z,37.36
2023-05-05T05:47:49.804Z,37.45
2023-05-05T05:50:16.601Z,37.50
2023-05-05T05:52:43.276Z,37.33
2023-05-05T05:55:09.782Z,36.96
2023-05-05T05:57:36.468Z,37.14
2023-05-05T06:00:03.002Z,37.07
2023-05-05T06:02:29.680Z,37.04
2023-05-05T06:04:56.347Z,36.94
2023-05-05T06:07:22.799Z,37.13
2023-05-05T06:09:49.333Z,36.99
2023-05-05T06:12:15.817Z,36.88
2023-05-05T06:14:42.650Z,36.97
2023-05-05T06:17:09.199Z,36.87
2023-05-05T06:19:35.706Z,36.79
2023-05-05T06:22:02.377Z,37.07
2023-05-05T06:24:28.926Z,37.03
2023-05-05T06:26:56.431Z,36.38
2023-05-05T06:29:22.970Z,37.35
2023-05-05T06:31:50.581Z,37.10
2023-05-05T06:34:17.126Z,36.36
2023-05-05T06:36:43.569Z,36.35
2023-05-05T06:39:10.424Z,37.25
2023-05-05T06:41:36.862Z,36.62
2023-05-05T06:44:03.575Z,36.93
2023-05-05T06:46:30.187Z,36.48
2023-05-05T06:48:57.051Z,36.49
2023-05-05T06:51:23.534Z,36.79
2023-05-05T06:53:49.987Z,36.60
2023-05-05T06:56:17.066Z,36.46
2023-05-05T06:58:43.782Z,36.63
2023-05-05T07:01:10.373Z,37.24
2023-05-05T07:03:39.280Z,36.89
2023-05-05T07:06:05.775Z,37.08
2023-05-05T07:08:32.267Z,36.46
2023-05-05T07:10:59.969Z,36.51
2023-05-05T07:13:26.563Z,35.91
2023-05-05T07:15:52.952Z,36.33
2023-05-05T07:18:19.362Z,36.42
2023-05-05T07:20:45.884Z,37.03
2023-05-05T07:23:14.843Z,36.39
2023-05-05T07:25:41.343Z,36.09
2023-05-05T07:28:07.985Z,36.11
2023-05-05T07:30:34.393Z,35.75
2023-05-05T07:33:01.003Z,35.69
2023-05-05T07:35:27.608Z,36.51
2023-05-05T07:37:54.261Z,36.33
2023-05-05T07:40:20.790Z,35.28
2023-05-05T07:42:47.356Z,36.47
2023-05-05T07:45:16.368Z,35.37
2023-05-05T07:47:42.940Z,35.82
2023-05-05T07:50:09.870Z,34.96
2023-05-05T07:52:46.471Z,35.04
2023-05-05T07:55:16.549Z,35.96
2023-05-05T07:57:43.245Z,36.08
2023-05-05T08:00:10.114Z,36.03
2023-05-05T08:02:36.837Z,35.79
2023-05-05T08:05:03.349Z,36.21
2023-05-05T08:07:30.164Z,35.47
2023-05-05T08:09:56.859Z,35.52
2023-05-05T08:12:23.348Z,35.57
2023-05-05T08:14:49.827Z,34.94
2023-05-05T08:17:21.682Z,35.77
2023-05-05T08:19:48.123Z,36.05
2023-05-05T08:22:14.577Z,35.78
2023-05-05T08:24:40.975Z,35.35
2023-05-05T08:27:07.842Z,35.23
2023-05-05T08:29:41.666Z,35.33
2023-05-05T08:32:08.246Z,35.25
2023-05-05T08:34:35.534Z,34.33
2023-05-05T08:37:02.012Z,35.56
2023-05-05T08:39:29.493Z,34.96
2023-05-05T08:41:55.979Z,35.31
2023-05-05T08:44:24.654Z,35.32
2023-05-05T08:46:51.249Z,35.27
2023-05-05T08:49:18.786Z,35.69
2023-05-05T08:51:45.856Z,35.97
2023-05-05T08:54:12.577Z,35.93
2023-05-05T08:56:39.320Z,34.68
2023-05-05T08:59:06.439Z,35.19
2023-05-05T09:01:33.431Z,35.19
2023-05-05T09:03:59.994Z,35.71
2023-05-05T09:06:26.748Z,35.20
2023-05-05T09:08:53.204Z,35.29
2023-05-05T09:11:20.641Z,35.47
2023-05-05T09:13:47.199Z,35.68
2023-05-05T09:16:13.673Z,36.15
2023-05-05T09:18:40.266Z,35.83
2023-05-05T09:21:08.332Z,35.38
2023-05-05T09:23:34.896Z,35.13
2023-05-05T09:26:01.794Z,35.10
2023-05-05T09:28:28.434Z,35.03
2023-05-05T09:30:54.919Z,34.91
2023-05-05T09:33:21.796Z,35.70
2023-05-05T09:35:52.467Z,35.46
2023-05-05T09:38:18.968Z,35.80
2023-05-05T09:40:52.642Z,35.83
2023-05-05T09:43:19.532Z,35.85
2023-05-05T09:45:46.420Z,35.75
2023-05-05T09:48:13.420Z,35.81
2023-05-05T09:50:40.364Z,35.72
2023-05-05T09:53:06.827Z,35.73
2023-05-05T09:55:33.785Z,35.42
2023-05-05T09:58:00.958Z,36.03
2023-05-05T10:00:27.633Z,36.74
2023-05-05T10:02:54.166Z,37.08
2023-05-05T10:05:20.793Z,36.47
2023-05-05T10:07:47.443Z,36.17
2023-05-05T10:10:14.232Z,36.22
2023-05-05T10:12:40.792Z,35.88
2023-05-05T10:15:07.259Z,35.75
2023-05-05T10:17:33.897Z,36.57
2023-05-05T10:20:00.492Z,37.67
2023-05-05T10:22:27.381Z,37.44
2023-05-05T10:24:54.158Z,36.02
2023-05-05T10:27:20.714Z,36.10
2023-05-05T10:29:48.360Z,35.37
2023-05-05T10:32:40.624Z,36.19
2023-05-05T10:35:01.632Z,37.08
2023-05-05T10:37:28.154Z,36.05
2023-05-05T10:39:54.716Z,36.38
2023-05-05T10:42:21.684Z,37.22
2023-05-05T10:44:48.496Z,36.89
2023-05-05T10:47:15.153Z,36.48
2023-05-05T10:49:41.937Z,36.95
2023-05-05T10:52:08.484Z,36.58
2023-05-05T10:54:38.284Z,36.48
2023-05-05T10:57:06.119Z,36.20
2023-05-05T10:59:33.843Z,36.15
2023-05-05T11:02:00.333Z,35.56
2023-05-05T11:04:26.792Z,35.87
2023-05-05T11:06:53.479Z,35.91
2023-05-05T11:09:19.997Z,35.80
2023-05-05T11:11:46.654Z,35.80
2023-05-05T11:14:13.117Z,35.45
2023-05-05T11:16:39.574Z,34.53
2023-05-05T11:19:06.076Z,34.78
2023-05-05T11:21:34.829Z,35.48
2023-05-05T11:24:01.904Z,35.83
2023-05-05T11:26:28.526Z,35.98
2023-05-05T11:28:55.049Z,35.27
2023-05-05T11:31:21.552Z,34.75
2023-05-05T11:33:48.039Z,34.88
2023-05-05T11:36:15.217Z,34.73
2023-05-05T11:38:41.716Z,34.38
2023-05-05T11:41:08.480Z,34.78
2023-05-05T11:43:35.060Z,34.43
2023-05-05T11:46:01.507Z,34.93
2023-05-05T11:48:28.002Z,33.83
2023-05-05T11:50:54.398Z,34.21
2023-05-05T11:53:20.803Z,33.55
2023-05-05T11:55:49.831Z,33.66
2023-05-05T11:58:18.415Z,34.17
2023-05-05T12:00:44.814Z,34.26
2023-05-05T12:03:11.370Z,33.69
2023-05-05T12:05:39.931Z,33.62
2023-05-05T12:08:06.392Z,33.43
2023-05-05T12:10:33.006Z,33.55
2023-05-05T12:12:59.444Z,32.48
2023-05-05T12:15:26.239Z,32.33
2023-05-05T12:17:52.756Z,32.50
2023-05-05T12:20:22.446Z,31.85
2023-05-05T12:22:48.863Z,32.32
2023-05-05T12:25:15.333Z,32.14
2023-05-05T12:27:41.747Z,32.77
2023-05-05T12:30:11.573Z,31.60
2023-05-05T12:32:38.884Z,31.39
2023-05-05T12:35:05.678Z,30.86
2023-05-05T12:37:32.090Z,30.41
2023-05-05T12:39:58.531Z,30.51
2023-05-05T12:42:25.306Z,30.22
2023-05-05T12:44:52.184Z,29.18
2023-05-05T12:47:18.605Z,29.65
2023-05-05T12:49:45.403Z,29.20
2023-05-05T12:52:13.561Z,29.45
2023-05-05T12:54:39.891Z,29.31
2023-05-05T12:57:06.591Z,29.79
2023-05-05T12:59:33.313Z,30.07
2023-05-05T13:01:59.968Z,29.46
2023-05-05T13:04:27.341Z,29.82
2023-05-05T13:06:54.585Z,29.92
2023-05-05T13:09:21.630Z,28.85
2023-05-05T13:11:48.311Z,29.38
2023-05-05T13:14:15.731Z,29.00
2023-05-05T13:16:42.376Z,29.23
2023-05-05T13:19:08.777Z,28.81
2023-05-05T13:21:36.223Z,27.69
2023-05-05T13:24:18.981Z,28.15
2023-05-05T13:26:49.347Z,28.62
2023-05-05T13:29:15.701Z,28.53
2023-05-05T13:31:42.154Z,27.87
2023-05-05T13:34:09.656Z,28.27
2023-05-05T13:36:36.085Z,28.20
2023-05-05T13:39:02.607Z,26.99
2023-05-05T13:41:29.172Z,27.41
2023-05-05T13:43:56.993Z,27.67
2023-05-05T13:46:23.390Z,27.52
2023-05-05T13:48:49.809Z,27.17
2023-05-05T13:51:18.528Z,26.88
2023-05-05T13:53:45.639Z,26.92
2023-05-05T13:56:13.122Z,26.92
2023-05-05T13:58:39.477Z,27.61
2023-05-05T14:01:05.884Z,27.81
2023-05-05T14:03:36.135Z,26.79
2023-05-05T14:06:02.749Z,27.43
2023-05-05T14:08:29.130Z,27.48
2023-05-05T14:10:55.803Z,27.06
2023-05-05T14:13:22.750Z,26.98
2023-05-05T14:15:49.272Z,27.29
2023-05-05T14:18:18.780Z,25.71
2023-05-05T14:20:45.304Z,26.10
2023-05-05T14:23:11.770Z,25.17
2023-05-05T14:25:38.179Z,26.30
2023-05-05T14:28:04.621Z,25.02
2023-05-05T14:30:31.476Z,25.59
2023-05-05T14:32:57.963Z,25.98
2023-05-05T14:35:24.784Z,25.90
2023-05-05T14:37:51.178Z,25.73
2023-05-05T14:40:18.686Z,25.99
2023-05-05T14:42:45.028Z,25.03
2023-05-05T14:45:12.460Z,25.06
2023-05-05T14:47:38.961Z,24.92
2023-05-05T14:50:05.554Z,24.83
2023-05-05T14:52:31.987Z,24.73
2023-05-05T14:54:58.536Z,24.79
2023-05-05T14:57:24.980Z,24.36
2023-05-05T14:59:51.488Z,24.20
2023-05-05T15:02:18.276Z,24.56
2023-05-05T15:04:44.826Z,24.76
2023-05-05T15:07:11.254Z,24.92
2023-05-05T15:09:37.707Z,24.33
2023-05-05T15:12:04.012Z,24.53
2023-05-05T15:14:30.415Z,24.30
2023-05-05T15:16:56.809Z,24.65
2023-05-05T15:19:23.581Z,24.22
2023-05-05T15:21:50.005Z,24.57
2023-05-05T15:24:17.444Z,23.87
2023-05-05T15:26:43.882Z,24.94
2023-05-05T15:29:10.616Z,24.83
2023-05-05T15:31:37.145Z,24.79
2023-05-05T15:34:04.900Z,25.37
2023-05-05T15:36:31.322Z,25.53
2023-05-05T15:38:58.404Z,25.33
2023-05-05T15:41:24.776Z,25.25
2023-05-05T15:43:51.141Z,25.11
2023-05-05T15:46:17.923Z,25.56
2023-05-05T15:48:44.317Z,25.25
2023-05-05T15:51:10.765Z,24.90
2023-05-05T15:53:37.248Z,25.33
2023-05-05T15:56:03.916Z,25.43
2023-05-05T15:58:31.404Z,24.94
2023-05-05T16:00:58.191Z,25.31
2023-05-05T16:03:25.035Z,24.31
2023-05-05T16:05:51.534Z,25.33
2023-05-05T16:08:17.988Z,24.88
2023-05-05T16:10:44.336Z,25.20
2023-05-05T16:13:11.777Z,24.74
2023-05-05T16:15:38.306Z,24.41
2023-05-05T16:18:04.732Z,24.81
2023-05-05T16:20:31.698Z,24.81
2023-05-05T16:22:58.084Z,24.96
2023-05-05T16:25:24.919Z,25.15
2023-05-05T16:27:53.720Z,25.41
2023-05-05T16:30:20.041Z,25.63
2023-05-05T16:32:46.699Z,25.21
2023-05-05T16:35:13.103Z,24.34
2023-05-05T16:37:39.604Z,25.49
2023-05-05T16:40:06.063Z,24.05
2023-05-05T16:42:33.705Z,25.08
2023-05-05T16:45:01.425Z,25.41
2023-05-05T16:47:27.804Z,25.40
2023-05-05T16:49:54.732Z,25.14
2023-05-05T16:52:21.157Z,25.23
2023-05-05T16:54:47.660Z,24.76
2023-05-05T16:57:14.014Z,24.79
2023-05-05T16:59:40.839Z,25.45
2023-05-05T17:02:07.691Z,25.29
2023-05-05T17:04:35.787Z,25.30
2023-05-05T17:07:02.177Z,25.69
2023-05-05T17:09:28.652Z,25.48
2023-05-05T17:11:55.249Z,26.13
2023-05-05T17:14:21.627Z,25.94
2023-05-05T17:16:48.156Z,26.76
2023-05-05T17:19:14.561Z,27.12
2023-05-05T17:21:42.101Z,27.00
2023-05-05T17:24:08.819Z,26.55
2023-05-05T17:26:46.504Z,26.71
2023-05-05T17:29:13.169Z,26.63
2023-05-05T17:31:39.730Z,27.00
2023-05-05T17:34:06.165Z,27.02
2023-05-05T17:36:33.044Z,27.07
2023-05-05T17:38:59.467Z,27.24
2023-05-05T17:41:25.932Z,27.65
2023-05-05T17:43:52.504Z,27.66
2023-05-05T17:46:19.058Z,28.16
2023-05-05T17:48:46.917Z,27.16
2023-05-05T17:51:17.334Z,28.10
2023-05-05T17:53:43.889Z,28.26
2023-05-05T17:56:10.311Z,28.17
2023-05-05T17:58:36.825Z,28.50
2023-05-05T18:01:07.374Z,28.71
2023-05-05T18:03:33.967Z,28.86
2023-05-05T18:06:00.522Z,29.24
2023-05-05T18:08:27.805Z,29.10
2023-05-05T18:10:55.523Z,28.86
2023-05-05T18:13:23.217Z,29.34
2023-05-05T18:15:49.926Z,29.32
2023-05-05T18:18:16.736Z,29.10
2023-05-05T18:20:43.419Z,29.45
2023-05-05T18:23:10.313Z,29.33
2023-05-05T18:25:37.953Z,29.72
2023-05-05T18:28:04.812Z,29.97
2023-05-05T18:30:32.087Z,29.87
2023-05-05T18:32:59.154Z,29.84
2023-05-05T18:35:26.252Z,30.37
2023-05-05T18:37:57.373Z,30.14
2023-05-05T18:40:24.583Z,30.07
2023-05-05T18:42:52.403Z,30.46
2023-05-05T18:45:21.598Z,29.93
2023-05-05T18:47:51.491Z,30.67
2023-05-05T18:50:18.937Z,30.14
2023-05-05T18:52:46.045Z,30.36
2023-05-05T18:55:15.461Z,30.98
2023-05-05T18:57:42.511Z,30.58
2023-05-05T19:00:09.810Z,30.75
2023-05-05T19:02:37.077Z,30.69
2023-05-05T19:05:11.368Z,30.34
2023-05-05T19:07:39.582Z,30.26
2023-05-05T19:10:12.056Z,30.20
2023-05-05T19:12:39.181Z,31.27
2023-05-05T19:15:06.966Z,30.77
2023-05-05T19:17:35.114Z,31.23
2023-05-05T19:20:02.300Z,31.65
2023-05-05T19:22:30.889Z,31.56
2023-05-05T19:24:58.051Z,31.55
2023-05-05T19:27:25.790Z,31.83
2023-05-05T19:29:53.489Z,31.45
2023-05-05T19:32:21.278Z,32.11
2023-05-05T19:34:48.722Z,32.09
2023-05-05T19:37:15.906Z,32.27
2023-05-05T19:39:43.424Z,32.34
2023-05-05T19:42:10.764Z,32.80
2023-05-05T19:44:38.231Z,32.35
2023-05-05T19:47:05.424Z,32.63
2023-05-05T19:49:33.782Z,32.44
2023-05-05T19:52:02.279Z,31.88
2023-05-05T19:54:30.159Z,31.79
2023-05-05T19:56:57.440Z,31.66
2023-05-05T19:59:29.862Z,32.23
2023-05-05T20:01:57.493Z,32.31
2023-05-05T20:04:24.810Z,31.82
2023-05-05T20:06:52.515Z,31.96
2023-05-05T20:09:19.775Z,32.06
2023-05-05T20:11:46.902Z,31.98
2023-05-05T20:14:14.299Z,32.41
2023-05-05T20:16:41.664Z,32.17
2023-05-05T20:19:09.719Z,32.44
2023-05-05T20:21:36.827Z,32.47
2023-05-05T20:24:06.658Z,32.56
2023-05-05T20:26:36.033Z,32.65
2023-05-05T20:29:03.123Z,32.70
2023-05-05T20:31:30.410Z,32.25
2023-05-05T20:33:57.869Z,32.84
2023-05-05T20:36:24.769Z,33.18
2023-05-05T20:38:53.985Z,32.82
2023-05-05T20:41:20.461Z,33.17
2023-05-05T20:43:47.266Z,32.75
2023-05-05T20:46:14.125Z,33.26
2023-05-05T20:48:42.940Z,32.96
2023-05-05T20:51:10.016Z,33.35
2023-05-05T20:53:37.708Z,33.12
2023-05-05T20:56:09.302Z,33.29
2023-05-05T20:58:37.444Z,33.33
2023-05-05T21:01:03.970Z,33.30
2023-05-05T21:03:31.319Z,33.73
2023-05-05T21:05:58.793Z,33.62
2023-05-05T21:08:26.183Z,33.79
2023-05-05T21:10:52.667Z,33.96
2023-05-05T21:13:19.518Z,33.60
2023-05-05T21:15:46.054Z,33.82
2023-05-05T21:18:12.650Z,33.85
2023-05-05T21:20:38.990Z,33.83
2023-05-05T21:23:05.393Z,33.63
2023-05-05T21:25:31.985Z,34.03
2023-05-05T21:27:58.424Z,33.48
2023-05-05T21:30:24.856Z,33.71
2023-05-05T21:32:51.303Z,33.45
2023-05-05T21:35:18.790Z,33.97
2023-05-05T21:37:45.218Z,33.71
2023-05-05T21:40:14.057Z,33.56
2023-05-05T21:42:40.668Z,34.18
2023-05-05T21:45:07.110Z,34.39
2023-05-05T21:47:33.924Z,34.10
2023-05-05T21:50:00.314Z,34.18
2023-05-05T21:52:26.971Z,34.04
2023-05-05T21:54:54.348Z,34.00
2023-05-05T21:57:21.178Z,34.52
2023-05-05T21:59:47.788Z,34.12
2023-05-05T22:02:14.127Z,34.13
2023-05-05T22:04:40.553Z,34.39
2023-05-05T22:07:07.261Z,34.71
2023-05-05T22:09:33.602Z,33.97
2023-05-05T22:11:59.958Z,33.98
2023-05-05T22:14:26.341Z,34.75
2023-05-05T22:16:52.772Z,34.83
2023-05-05T22:19:19.174Z,34.92
2023-05-05T22:21:45.548Z,34.93
2023-05-05T22:24:13.411Z,34.80
2023-05-05T22:26:39.938Z,34.94
2023-05-05T22:29:06.497Z,34.94
2023-05-05T22:31:33.209Z,34.66
2023-05-05T22:33:59.913Z,34.77
2023-05-05T22:36:27.867Z,34.81
2023-05-05T22:38:54.610Z,34.71
2023-05-05T22:41:21.409Z,35.25
2023-05-05T22:43:47.851Z,35.44
2023-05-05T22:46:14.264Z,35.36
2023-05-05T22:48:40.866Z,35.43
2023-05-05T22:51:09.429Z,35.22
2023-05-05T22:53:36.048Z,36.05
2023-05-05T22:56:02.651Z,35.69
2023-05-05T22:58:29.029Z,35.76
2023-05-05T23:00:55.489Z,35.45
2023-05-05T23:03:21.893Z,35.50
2023-05-05T23:05:50.359Z,35.81
2023-05-05T23:08:16.752Z,35.60
2023-05-05T23:10:43.210Z,35.88
2023-05-05T23:13:09.689Z,35.91
2023-05-05T23:15:36.394Z,35.64
2023-05-05T23:18:02.798Z,35.80
2023-05-05T23:20:30.067Z,35.75
2023-05-05T23:22:56.419Z,35.65
2023-05-05T23:25:22.831Z,36.28
2023-05-05T23:27:49.191Z,36.10
2023-05-05T23:30:15.789Z,36.25
2023-05-05T23:32:42.232Z,36.16
2023-05-05T23:35:09.162Z,35.95
2023-05-05T23:37:35.739Z,36.26
2023-05-05T23:40:02.108Z,36.15
2023-05-05T23:42:28.438Z,35.82
2023-05-05T23:44:55.122Z,35.99
2023-05-05T23:47:23.926Z,36.43
2023-05-05T23:49:50.615Z,36.21
2023-05-05T23:52:17.331Z,36.46
2023-05-05T23:54:44.889Z,36.30
2023-05-05T23:57:11.238Z,36.37
2023-05-05T23:59:37.968Z,36.26
